Time;durP1;ratioP1;P1;durP2;ratioP2;P2;SDS_P1;SDS_P2;PMS_P1;PMS_P2;Temp;Humidity;BMP_temperature;BMP_pressure;BME280_temperature;BME280_humidity;BME280_pressure;Samples;Min_cycle;Max_cycle;Signal;HPM_P1;HPM_P2
2023/03/25 00:00:58;;;;;;;4.95;1.70;;;;;;;11.49;nan;100030.25;4989141;28;20038;-52
2023/03/25 00:03:29;;;;;;;4.45;1.85;;;;;;;11.52;nan;100035.28;5000640;28;20144;-49
2023/03/25 00:05:56;;;;;;;2.97;1.40;;;;;;;11.47;nan;100037.41;5005536;28;20579;-53
2023/03/25 00:08:23;;;;;;;2.42;1.63;;;;;;;11.45;nan;100041.94;4999666;28;20050;-51
2023/03/25 00:10:53;;;;;;;7.82;2.13;;;;;;;11.43;nan;100052.59;5000531;28;20125;-51
2023/03/25 00:13:20;;;;;;;6.80;1.88;;;;;;;11.42;nan;100050.06;5005377;28;20468;-52
2023/03/25 00:15:46;;;;;;;9.13;2.17;;;;;;;11.41;nan;100038.69;5002476;28;20107;-51
2023/03/25 00:18:12;;;;;;;5.13;2.05;;;;;;;11.40;nan;100044.91;5010177;28;20030;-52
2023/03/25 00:20:40;;;;;;;3.65;1.60;;;;;;;11.38;nan;100046.00;5008209;28;20029;-52
2023/03/25 00:23:06;;;;;;;3.30;1.75;;;;;;;11.41;nan;100040.50;5006111;28;20385;-54
2023/03/25 00:25:32;;;;;;;3.15;1.67;;;;;;;11.42;nan;100036.91;5001291;28;27891;-52
2023/03/25 00:27:58;;;;;;;6.55;1.77;;;;;;;11.36;nan;100038.19;5008139;28;20026;-51
2023/03/25 00:30:24;;;;;;;6.65;1.95;;;;;;;11.36;nan;100037.34;5002461;28;20037;-53
2023/03/25 00:32:51;;;;;;;3.60;1.67;;;;;;;11.35;nan;100041.78;5002049;28;20435;-54
2023/03/25 00:35:21;;;;;;;5.03;1.75;;;;;;;11.34;nan;100040.13;5005017;28;20061;-52
2023/03/25 00:37:58;;;;;;;3.42;1.83;;;;;;;11.32;nan;100049.06;5003579;28;20049;-53
2023/03/25 00:40:27;;;;;;;3.45;1.77;;;;;;;11.29;nan;100045.69;5005030;28;20045;-52
2023/03/25 00:42:53;;;;;;;4.25;2.30;;;;;;;11.24;nan;100047.84;4995795;28;20040;-57
2023/03/25 00:45:19;;;;;;;6.43;2.45;;;;;;;11.22;nan;100044.47;5001193;28;20153;-54
2023/03/25 00:47:44;;;;;;;4.55;2.22;;;;;;;11.20;nan;100042.88;4993169;28;20033;-51
2023/03/25 00:50:11;;;;;;;5.65;2.75;;;;;;;11.21;nan;100045.41;4996754;28;20430;-53
2023/03/25 00:52:36;;;;;;;4.45;2.47;;;;;;;11.22;nan;100046.25;5003855;28;20033;-52
2023/03/25 00:55:03;;;;;;;4.70;2.10;;;;;;;11.19;nan;100042.03;4996451;28;20088;-53
2023/03/25 00:57:29;;;;;;;4.47;1.90;;;;;;;11.18;nan;100058.78;5004963;28;20125;-52
2023/03/25 00:59:54;;;;;;;7.68;2.20;;;;;;;11.18;nan;100045.63;5004433;28;20129;-52
2023/03/25 01:02:21;;;;;;;9.07;2.80;;;;;;;11.14;nan;100044.16;4995895;28;20084;-56
2023/03/25 01:04:48;;;;;;;5.53;2.45;;;;;;;11.11;nan;100049.66;4998679;28;20029;-53
2023/03/25 01:07:15;;;;;;;4.35;1.95;;;;;;;11.09;nan;100056.81;5000848;28;20029;-53
2023/03/25 01:09:45;;;;;;;9.52;2.35;;;;;;;11.10;nan;100048.81;5005987;28;20065;-53
2023/03/25 01:12:11;;;;;;;7.93;2.30;;;;;;;11.09;nan;100051.56;4996758;28;20053;-55
2023/03/25 01:14:37;;;;;;;8.25;2.42;;;;;;;11.10;nan;100050.63;5000183;28;20061;-52
2023/03/25 01:17:02;;;;;;;7.15;3.00;;;;;;;11.08;nan;100045.44;5003202;28;20041;-53
2023/03/25 01:19:28;;;;;;;5.60;2.45;;;;;;;11.07;nan;100042.94;5000727;28;20029;-53
2023/03/25 01:21:53;;;;;;;7.03;3.10;;;;;;;11.05;nan;100047.44;5000140;28;20226;-52
2023/03/25 01:24:19;;;;;;;4.97;2.70;;;;;;;11.07;nan;100048.19;5005664;28;20561;-53
2023/03/25 01:26:45;;;;;;;4.05;2.38;;;;;;;11.06;nan;100042.06;5008635;28;20029;-53
2023/03/25 01:29:13;;;;;;;3.88;2.40;;;;;;;11.03;nan;100044.94;5000478;28;20393;-52
2023/03/25 01:31:39;;;;;;;7.20;2.47;;;;;;;11.02;nan;100045.03;5000742;28;20029;-52
2023/03/25 01:34:06;;;;;;;6.50;2.83;;;;;;;10.96;nan;100039.28;5005880;28;20481;-52
2023/03/25 01:36:32;;;;;;;8.57;2.97;;;;;;;10.94;nan;100040.31;4995045;28;20117;-54
2023/03/25 01:39:00;;;;;;;7.28;3.42;;;;;;;10.89;nan;100037.19;5002683;28;20097;-52
2023/03/25 01:41:28;;;;;;;14.57;3.60;;;;;;;10.83;nan;100041.06;5003751;28;20033;-52
2023/03/25 01:44:07;;;;;;;3.85;2.97;;;;;;;10.82;nan;100034.09;5005078;28;20026;-52
2023/03/25 01:46:38;;;;;;;5.65;2.78;;;;;;;10.83;nan;100031.38;5005440;28;20058;-51
2023/03/25 01:49:07;;;;;;;6.72;3.05;;;;;;;10.85;nan;100030.44;4997382;28;20030;-52
2023/03/25 01:51:39;;;;;;;7.10;3.20;;;;;;;10.82;nan;100026.22;4999841;28;20045;-53
2023/03/25 01:54:05;;;;;;;11.20;3.55;;;;;;;10.79;nan;100023.81;4999152;28;20026;-56
2023/03/25 01:56:37;;;;;;;8.07;3.70;;;;;;;10.75;nan;100028.44;5002763;28;20497;-53
2023/03/25 01:59:05;;;;;;;7.03;3.20;;;;;;;10.74;nan;100016.22;4994913;28;20026;-55
2023/03/25 02:01:31;;;;;;;5.55;3.40;;;;;;;10.79;nan;100023.81;4999150;28;20132;-52
2023/03/25 02:04:08;;;;;;;7.07;3.38;;;;;;;10.82;nan;100019.19;5005119;28;20113;-52
2023/03/25 02:06:41;;;;;;;4.93;2.53;;;;;;;10.79;nan;100018.56;4993742;28;20049;-52
2023/03/25 02:09:10;;;;;;;4.78;3.08;;;;;;;10.78;nan;100027.41;4997922;28;20727;-52
2023/03/25 02:11:37;;;;;;;7.13;3.05;;;;;;;10.76;nan;100019.59;5000145;28;20062;-53
2023/03/25 02:14:07;;;;;;;5.80;2.85;;;;;;;10.80;nan;100021.06;5001891;28;20065;-53
2023/03/25 02:17:11;;;;;;;4.45;3.05;;;;;;;10.81;nan;100014.03;4998727;28;20037;-52
2023/03/25 02:19:54;;;;;;;6.53;2.70;;;;;;;10.77;nan;100017.81;5000891;28;20062;-53
2023/03/25 02:22:24;;;;;;;5.38;2.58;;;;;;;10.76;nan;100002.97;5001244;28;20037;-52
2023/03/25 02:25:04;;;;;;;6.25;2.60;;;;;;;10.75;nan;100006.56;4994629;28;20041;-54
2023/03/25 02:27:45;;;;;;;5.35;2.38;;;;;;;10.73;nan;100004.03;4997588;28;20040;-52
2023/03/25 02:30:38;;;;;;;6.45;2.70;;;;;;;10.78;nan;99988.75;4998800;28;20541;-52
2023/03/25 02:33:19;;;;;;;5.38;2.85;;;;;;;10.76;nan;99997.72;4999117;28;20031;-55
2023/03/25 02:35:51;;;;;;;8.30;2.83;;;;;;;10.80;nan;99986.84;5005617;28;20037;-51
2023/03/25 02:38:46;;;;;;;6.50;2.85;;;;;;;10.76;nan;99981.94;5000676;28;20114;-53
2023/03/25 02:41:40;;;;;;;5.75;2.40;;;;;;;10.75;nan;99973.19;5002392;28;20519;-53
2023/03/25 02:44:37;;;;;;;7.47;3.10;;;;;;;10.74;nan;99968.03;4998817;28;20099;-52
2023/03/25 02:47:10;;;;;;;5.40;2.63;;;;;;;10.72;nan;99967.28;4967646;28;20467;-55
2023/03/25 02:49:47;;;;;;;5.97;2.42;;;;;;;10.69;nan;99965.72;4993963;28;20041;-52
2023/03/25 02:52:22;;;;;;;5.45;2.20;;;;;;;10.69;nan;99971.00;4997085;28;20057;-51
2023/03/25 02:54:50;;;;;;;5.85;2.63;;;;;;;10.65;nan;99967.75;4998752;28;20025;-52
2023/03/25 02:57:19;;;;;;;4.25;1.88;;;;;;;10.64;nan;99958.16;4996505;28;25238;-52
2023/03/25 02:59:49;;;;;;;4.75;2.30;;;;;;;10.64;nan;99968.69;4997328;28;20041;-52
2023/03/25 03:02:18;;;;;;;5.22;2.40;;;;;;;10.66;nan;99965.94;5003330;28;20025;-53
2023/03/25 03:04:55;;;;;;;4.68;2.30;;;;;;;10.68;nan;99964.88;4995339;28;20068;-54
2023/03/25 03:07:28;;;;;;;4.03;2.20;;;;;;;10.71;nan;99965.63;4996258;28;20128;-52
2023/03/25 03:10:47;;;;;;;3.15;1.30;;;;;;;10.68;nan;99962.25;5001772;28;20044;-53
2023/03/25 03:13:51;;;;;;;4.03;1.65;;;;;;;10.66;nan;99958.88;4954967;28;20066;-54
2023/03/25 03:16:20;;;;;;;4.30;2.00;;;;;;;10.62;nan;99960.06;4990254;28;20046;-53
2023/03/25 03:19:01;;;;;;;4.70;1.75;;;;;;;10.61;nan;99962.78;4992525;28;20033;-55
2023/03/25 03:21:55;;;;;;;7.10;2.05;;;;;;;10.61;nan;99958.38;4999988;28;20121;-52
2023/03/25 03:24:33;;;;;;;7.85;1.75;;;;;;;10.59;nan;99949.75;4989377;28;20054;-51
2023/03/25 03:26:59;;;;;;;3.75;1.52;;;;;;;10.60;nan;99945.31;4999475;28;20376;-53
2023/03/25 03:29:30;;;;;;;2.83;1.50;;;;;;;10.63;nan;99948.59;4989713;28;20034;-53
2023/03/25 03:32:28;;;;;;;5.70;2.17;;;;;;;10.67;nan;99947.41;4995638;28;20121;-52
2023/03/25 03:35:07;;;;;;;4.97;1.25;;;;;;;10.72;nan;99948.88;4988506;28;20289;-54
2023/03/25 03:37:37;;;;;;;3.30;1.58;;;;;;;10.77;nan;99942.34;4997483;28;20033;-54
2023/03/25 03:40:11;;;;;;;3.10;1.40;;;;;;;10.79;nan;99944.88;5000874;28;20030;-52
2023/03/25 03:42:41;;;;;;;2.72;1.90;;;;;;;10.81;nan;99945.59;4999082;28;20037;-52
2023/03/25 03:45:12;;;;;;;7.05;1.55;;;;;;;10.81;nan;99945.59;4995234;28;20026;-52
2023/03/25 03:47:42;;;;;;;5.00;1.65;;;;;;;10.84;nan;99942.72;5001918;28;20034;-53
2023/03/25 03:50:13;;;;;;;4.63;1.25;;;;;;;10.88;nan;99941.56;5007015;28;20581;-52
2023/03/25 03:52:46;;;;;;;3.08;1.80;;;;;;;10.94;nan;99943.78;5003740;28;20033;-56
2023/03/25 03:55:28;;;;;;;5.10;1.70;;;;;;;10.96;nan;99941.03;5005130;28;20091;-51
2023/03/25 03:58:01;;;;;;;4.22;1.95;;;;;;;10.96;nan;99943.66;5011214;28;20021;-53
2023/03/25 04:00:43;;;;;;;4.75;2.10;;;;;;;11.01;nan;99943.31;4995775;28;20088;-52
2023/03/25 04:03:14;;;;;;;4.05;1.77;;;;;;;11.01;nan;99938.03;5002234;28;20052;-51
2023/03/25 04:05:52;;;;;;;3.57;1.43;;;;;;;11.04;nan;99937.84;5001342;28;20038;-52
2023/03/25 04:08:28;;;;;;;5.25;1.58;;;;;;;11.05;nan;99928.97;5007262;28;20040;-57
2023/03/25 04:11:20;;;;;;;7.32;2.20;;;;;;;11.04;nan;99927.31;5002545;28;20061;-52
2023/03/25 04:13:49;;;;;;;3.88;1.17;;;;;;;11.07;nan;99932.34;4996576;28;20029;-56
2023/03/25 04:16:15;;;;;;;3.90;1.35;;;;;;;11.04;nan;99943.94;5001766;28;20589;-54
2023/03/25 04:18:42;;;;;;;4.25;1.02;;;;;;;11.00;nan;99950.38;5003180;28;20484;-52
2023/03/25 04:21:09;;;;;;;5.15;1.90;;;;;;;10.93;nan;99957.03;4996819;28;20041;-53
2023/03/25 04:23:36;;;;;;;2.28;1.00;;;;;;;10.88;nan;99954.72;5007854;28;20629;-51
2023/03/25 04:26:02;;;;;;;4.20;1.15;;;;;;;10.86;nan;99956.63;5003880;28;20046;-52
2023/03/25 04:28:28;;;;;;;7.38;1.55;;;;;;;10.87;nan;99958.31;5005540;28;20034;-52
2023/03/25 04:30:59;;;;;;;7.40;1.77;;;;;;;10.86;nan;99950.53;5006132;28;20040;-52
2023/03/25 04:33:25;;;;;;;3.30;1.45;;;;;;;10.86;nan;99963.69;5005613;28;20037;-52
2023/03/25 04:35:51;;;;;;;7.20;2.10;;;;;;;10.87;nan;99957.50;4992339;28;20037;-54
2023/03/25 04:38:21;;;;;;;4.97;1.85;;;;;;;10.87;nan;99960.94;5007568;28;20037;-52
2023/03/25 04:40:47;;;;;;;5.40;1.38;;;;;;;10.89;nan;99945.06;5006535;28;20124;-55
2023/03/25 04:43:13;;;;;;;4.07;1.35;;;;;;;10.91;nan;99956.28;4999822;28;20083;-52
2023/03/25 04:45:41;;;;;;;3.85;1.55;;;;;;;10.88;nan;99946.84;5002838;28;20029;-52
2023/03/25 04:48:19;;;;;;;4.22;1.25;;;;;;;10.87;nan;99942.53;4997602;28;20038;-52
2023/03/25 04:50:45;;;;;;;4.93;1.30;;;;;;;10.88;nan;99943.38;5009386;28;20042;-52
2023/03/25 04:53:10;;;;;;;5.15;1.17;;;;;;;10.88;nan;99936.31;5000556;28;20032;-52
2023/03/25 04:55:36;;;;;;;4.65;1.50;;;;;;;10.89;nan;99945.88;5000065;28;20038;-51
2023/03/25 04:58:01;;;;;;;3.47;1.30;;;;;;;10.88;nan;99933.69;4999636;28;20092;-52
2023/03/25 05:00:27;;;;;;;3.25;1.00;;;;;;;10.88;nan;99936.31;5000563;28;20424;-51
2023/03/25 05:02:54;;;;;;;6.00;1.63;;;;;;;10.87;nan;99945.16;5006451;28;20034;-52
2023/03/25 05:05:22;;;;;;;4.93;1.35;;;;;;;10.87;nan;99937.25;5001487;28;20136;-53
2023/03/25 05:07:53;;;;;;;3.05;1.38;;;;;;;10.86;nan;99940.84;5006320;28;20096;-53
2023/03/25 05:10:21;;;;;;;4.22;1.35;;;;;;;10.85;nan;99936.53;4994271;28;20025;-52
2023/03/25 05:12:47;;;;;;;5.35;1.85;;;;;;;10.84;nan;99937.47;4994115;28;20042;-55
2023/03/25 05:15:14;;;;;;;5.47;1.60;;;;;;;10.82;nan;99940.22;4994441;28;20034;-52
2023/03/25 05:17:40;;;;;;;4.03;1.42;;;;;;;10.83;nan;99941.06;5007434;28;20113;-53
2023/03/25 05:20:10;;;;;;;3.95;1.30;;;;;;;10.82;nan;99936.72;5005777;28;20249;-53
2023/03/25 05:22:36;;;;;;;5.00;1.20;;;;;;;10.82;nan;99944.63;5006424;28;20121;-51
2023/03/25 05:25:08;;;;;;;3.28;1.55;;;;;;;10.83;nan;99941.06;4998428;28;20026;-56
2023/03/25 05:27:34;;;;;;;2.33;1.50;;;;;;;10.86;nan;99938.19;5003278;28;20057;-54
2023/03/25 05:30:00;;;;;;;3.55;1.60;;;;;;;10.88;nan;99938.94;5004667;28;20405;-51
2023/03/25 05:32:34;;;;;;;7.28;2.60;;;;;;;10.91;nan;99933.47;4997038;28;20091;-55
2023/03/25 05:35:03;;;;;;;3.72;1.60;;;;;;;10.93;nan;99936.81;5002841;28;20485;-52
2023/03/25 05:37:29;;;;;;;5.00;1.23;;;;;;;10.92;nan;99929.88;5004201;28;20032;-52
2023/03/25 05:39:55;;;;;;;8.18;1.10;;;;;;;10.95;nan;99934.06;5002161;28;20034;-52
2023/03/25 05:42:23;;;;;;;5.20;1.83;;;;;;;10.97;nan;99933.00;4999045;28;20026;-52
2023/03/25 05:44:52;;;;;;;7.28;3.67;;;;;;;11.03;nan;99946.69;5004003;28;20030;-53
2023/03/25 05:47:22;;;;;;;6.72;2.53;;;;;;;11.04;nan;99937.84;4995110;28;20030;-54
2023/03/25 05:49:49;;;;;;;5.30;2.10;;;;;;;11.06;nan;99943.84;5005746;28;20099;-55
2023/03/25 05:52:16;;;;;;;7.97;3.47;;;;;;;11.08;nan;99950.66;4993100;28;20117;-58
2023/03/25 05:54:44;;;;;;;3.83;1.65;;;;;;;11.11;nan;99952.25;4996713;28;20026;-51
2023/03/25 05:57:10;;;;;;;8.25;3.17;;;;;;;11.13;nan;99952.94;5003117;28;20100;-51
2023/03/25 05:59:39;;;;;;;5.97;1.65;;;;;;;11.13;nan;99952.94;4998198;28;20069;-55
2023/03/25 06:02:13;;;;;;;3.60;1.10;;;;;;;11.09;nan;99951.50;5004095;28;20041;-54
2023/03/25 06:04:42;;;;;;;3.45;1.10;;;;;;;11.09;nan;99947.06;5006756;28;20040;-52
2023/03/25 06:07:13;;;;;;;4.35;1.25;;;;;;;11.11;nan;99950.44;4991547;28;20384;-51
2023/03/25 06:09:45;;;;;;;5.38;1.40;;;;;;;11.15;nan;99961.56;5003848;28;20080;-52
2023/03/25 06:12:18;;;;;;;3.90;1.15;;;;;;;11.16;nan;99955.38;4998190;28;20114;-51
2023/03/25 06:14:44;;;;;;;2.05;1.10;;;;;;;11.18;nan;99958.72;4998350;28;20033;-51
2023/03/25 06:17:14;;;;;;;4.95;0.93;;;;;;;11.23;nan;99958.38;4998012;28;20030;-54
2023/03/25 06:19:40;;;;;;;2.08;0.90;;;;;;;11.28;nan;99957.09;4991253;28;20087;-52
2023/03/25 06:22:08;;;;;;;7.50;1.23;;;;;;;11.32;nan;99957.72;4994894;28;20030;-51
2023/03/25 06:24:38;;;;;;;3.60;0.95;;;;;;;11.31;nan;99952.56;4999121;28;20064;-51
2023/03/25 06:27:08;;;;;;;4.72;1.13;;;;;;;11.35;nan;99961.94;4997969;28;20072;-52
2023/03/25 06:29:37;;;;;;;5.30;1.80;;;;;;;11.36;nan;99953.91;4998829;28;20192;-51
2023/03/25 06:32:05;;;;;;;4.32;2.00;;;;;;;11.39;nan;99952.84;4986701;28;20050;-50
2023/03/25 06:34:33;;;;;;;4.50;1.15;;;;;;;11.46;nan;99956.69;4992894;28;20036;-54
2023/03/25 06:37:00;;;;;;;4.97;0.95;;;;;;;11.50;nan;99954.66;4989738;28;20484;-52
2023/03/25 06:39:30;;;;;;;2.80;1.30;;;;;;;11.50;nan;99966.06;4991505;28;20121;-55
2023/03/25 06:41:57;;;;;;;4.35;1.30;;;;;;;11.46;nan;99961.97;4984790;28;20044;-51
2023/03/25 06:44:22;;;;;;;6.25;1.75;;;;;;;11.49;nan;99969.66;4994499;28;20030;-54
2023/03/25 06:46:47;;;;;;;3.53;1.42;;;;;;;11.48;nan;99967.97;4987806;28;20032;-55
2023/03/25 06:49:13;;;;;;;5.97;1.40;;;;;;;11.48;nan;99965.34;4981278;28;20080;-52
2023/03/25 06:51:38;;;;;;;3.95;1.42;;;;;;;11.49;nan;99974.09;4988828;28;24658;-53
2023/03/25 06:54:04;;;;;;;2.65;1.27;;;;;;;11.49;nan;99966.19;4992319;28;20045;-53
2023/03/25 06:59:02;;;;;;;4.88;1.05;;;;;;;11.58;nan;99963.69;4960898;28;20054;-49
2023/03/25 07:01:28;;;;;;;5.57;1.33;;;;;;;11.63;nan;99963.38;4960562;28;20497;-47
2023/03/25 07:03:53;;;;;;;3.80;1.38;;;;;;;11.68;nan;99963.03;4962885;28;20047;-48
2023/03/25 07:06:23;;;;;;;3.55;1.13;;;;;;;11.71;nan;99966.25;4967749;28;20408;-49
2023/03/25 07:08:48;;;;;;;4.20;0.90;;;;;;;11.73;nan;99964.34;4951833;29;20397;-46
2023/03/25 07:11:18;;;;;;;3.47;1.20;;;;;;;11.79;nan;99986.75;4955093;28;20023;-45
2023/03/25 07:13:43;;;;;;;4.53;1.10;;;;;;;11.81;nan;99971.69;4969551;28;20455;-49
2023/03/25 07:16:10;;;;;;;5.60;0.98;;;;;;;11.86;nan;99973.97;4947974;28;20030;-47
2023/03/25 07:18:35;;;;;;;4.15;1.13;;;;;;;11.86;nan;99972.19;4945330;28;20122;-48
2023/03/25 07:21:01;;;;;;;3.53;0.93;;;;;;;11.88;nan;99975.50;4946748;28;20114;-46
2023/03/25 07:23:26;;;;;;;5.22;1.40;;;;;;;11.90;nan;99973.59;4951570;28;20032;-48
2023/03/25 07:25:52;;;;;;;3.42;1.20;;;;;;;11.96;nan;99968.84;4951239;28;20046;-48
2023/03/25 07:28:18;;;;;;;3.88;1.02;;;;;;;11.99;nan;99968.63;4952781;28;20042;-47
2023/03/25 07:30:43;;;;;;;2.65;1.25;;;;;;;11.99;nan;99979.19;4951266;28;20122;-44
2023/03/25 07:33:09;;;;;;;4.15;1.20;;;;;;;12.01;nan;99964.09;4953840;28;20050;-45
2023/03/25 07:35:35;;;;;;;2.97;1.30;;;;;;;12.10;nan;99981.84;4948269;28;20047;-46
2023/03/25 07:38:00;;;;;;;4.95;0.95;;;;;;;12.12;nan;99977.28;4956303;28;20111;-47
2023/03/25 07:40:25;;;;;;;3.33;1.20;;;;;;;12.11;nan;99969.47;4951054;28;20030;-48
2023/03/25 07:42:51;;;;;;;3.90;1.20;;;;;;;12.08;nan;99965.28;4941953;28;20476;-46
2023/03/25 07:45:16;;;;;;;2.47;1.20;;;;;;;12.14;nan;99977.16;4948668;28;20038;-49
2023/03/25 07:47:42;;;;;;;3.90;1.23;;;;;;;12.20;nan;99980.16;4948149;28;20031;-47
2023/03/25 07:50:08;;;;;;;2.53;1.10;;;;;;;12.25;nan;99981.63;4942449;29;20031;-46
2023/03/25 07:52:35;;;;;;;1.67;0.80;;;;;;;12.32;nan;99972.28;4950433;29;20422;-49
2023/03/25 07:55:00;;;;;;;7.53;1.30;;;;;;;12.39;nan;99968.19;4946591;28;20027;-47
2023/03/25 07:57:26;;;;;;;5.22;0.77;;;;;;;12.41;nan;99976.84;4947778;28;20029;-47
2023/03/25 07:59:51;;;;;;;3.60;0.93;;;;;;;12.46;nan;99973.84;4944908;29;20050;-49
2023/03/25 08:02:17;;;;;;;3.42;1.05;;;;;;;12.54;nan;99973.25;4945787;28;20384;-47
2023/03/25 08:04:43;;;;;;;2.17;0.80;;;;;;;12.52;nan;99972.50;4945785;28;20114;-46
2023/03/25 08:07:10;;;;;;;6.13;1.85;;;;;;;12.56;nan;99989.78;4956721;28;20477;-47
2023/03/25 08:09:35;;;;;;;3.75;1.27;;;;;;;12.54;nan;99981.16;4951626;29;20055;-45
2023/03/25 08:12:01;;;;;;;6.90;1.50;;;;;;;12.54;nan;99976.72;4950678;28;20151;-46
2023/03/25 08:14:26;;;;;;;3.53;1.48;;;;;;;12.56;nan;99969.50;4953310;28;20035;-47
2023/03/25 08:16:52;;;;;;;5.32;1.30;;;;;;;12.58;nan;99969.41;4952975;28;20114;-46
2023/03/25 08:19:18;;;;;;;3.55;1.90;;;;;;;12.62;nan;99971.69;4947048;28;20035;-50
2023/03/25 08:21:43;;;;;;;6.57;1.40;;;;;;;12.73;nan;99984.03;4946170;28;20041;-48
2023/03/25 08:24:10;;;;;;;3.78;1.50;;;;;;;12.79;nan;99980.88;4946529;29;20024;-46
2023/03/25 08:26:36;;;;;;;4.47;1.40;;;;;;;12.85;nan;99979.59;4954636;28;20122;-48
2023/03/25 08:29:02;;;;;;;2.38;1.25;;;;;;;12.90;nan;99981.84;4951864;29;20028;-46
2023/03/25 08:31:34;;;;;;;7.13;1.40;;;;;;;12.98;nan;99974.16;4952234;29;20027;-45
2023/03/25 08:34:01;;;;;;;3.38;1.50;;;;;;;13.06;nan;99979.66;4946085;28;20023;-46
2023/03/25 08:36:27;;;;;;;3.78;1.10;;;;;;;13.06;nan;99982.31;4946991;28;20036;-47
2023/03/25 08:38:53;;;;;;;4.68;1.40;;;;;;;13.00;nan;99996.00;4940971;28;20129;-47
2023/03/25 08:41:19;;;;;;;5.68;1.23;;;;;;;12.99;nan;99985.56;4948298;28;20071;-49
2023/03/25 08:43:45;;;;;;;2.67;1.45;;;;;;;12.97;nan;99993.59;4949372;28;20027;-46
2023/03/25 08:46:11;;;;;;;2.75;1.63;;;;;;;13.00;nan;99981.97;4950792;28;20038;-46
2023/03/25 08:48:37;;;;;;;3.05;1.10;;;;;;;13.08;nan;99984.81;4950329;28;20652;-43
2023/03/25 08:51:03;;;;;;;5.13;1.80;;;;;;;13.14;nan;99984.34;4951880;28;20035;-47
2023/03/25 08:53:29;;;;;;;4.30;1.13;;;;;;;13.13;nan;99979.16;4948241;28;20039;-46
2023/03/25 08:55:56;;;;;;;4.18;1.20;;;;;;;13.13;nan;99984.44;4953256;28;20027;-48
2023/03/25 08:58:22;;;;;;;2.65;1.08;;;;;;;13.06;nan;99981.47;4951297;28;20035;-46
2023/03/25 09:00:54;;;;;;;2.30;1.25;;;;;;;13.08;nan;99984.81;4952209;28;20043;-46
2023/03/25 09:03:23;;;;;;;4.72;1.58;;;;;;;13.16;nan;99981.56;4945604;28;20126;-49
2023/03/25 09:05:49;;;;;;;2.20;1.05;;;;;;;13.27;nan;99979.72;4965830;28;20043;-46
2023/03/25 09:08:15;;;;;;;3.55;1.33;;;;;;;13.33;nan;99983.69;4947222;29;20042;-49
2023/03/25 09:10:43;;;;;;;5.43;1.20;;;;;;;13.41;nan;99970.69;4953864;28;20548;-46
2023/03/25 09:13:09;;;;;;;4.10;1.63;;;;;;;13.50;nan;99978.84;4952936;29;20019;-47
2023/03/25 09:15:35;;;;;;;5.60;0.95;;;;;;;13.51;nan;99967.31;4952750;29;20485;-47
2023/03/25 09:18:00;;;;;;;2.78;1.30;;;;;;;13.59;nan;99970.13;4953596;28;20035;-47
2023/03/25 09:20:26;;;;;;;3.10;1.00;;;;;;;13.66;nan;99963.41;4948565;29;20023;-46
2023/03/25 09:22:51;;;;;;;5.13;1.00;;;;;;;13.68;nan;99961.47;4949448;28;20046;-46
2023/03/25 09:25:17;;;;;;;5.95;2.00;;;;;;;13.77;nan;99972.22;4947558;28;20517;-46
2023/03/25 09:27:43;;;;;;;6.90;1.35;;;;;;;13.72;nan;99978.72;4944555;28;20106;-48
2023/03/25 09:30:09;;;;;;;4.72;1.23;;;;;;;13.68;nan;99982.63;4968475;28;20031;-48
2023/03/25 09:32:35;;;;;;;1.98;0.60;;;;;;;13.61;nan;99973.50;4951379;28;20027;-49
2023/03/25 09:35:00;;;;;;;4.50;1.42;;;;;;;13.54;nan;99983.75;4951823;28;20046;-47
2023/03/25 09:37:26;;;;;;;2.60;1.05;;;;;;;13.53;nan;99979.41;4950206;28;20394;-48
2023/03/25 09:39:52;;;;;;;3.58;0.85;;;;;;;13.56;nan;99979.19;4952047;29;20042;-48
2023/03/25 09:42:39;;;;;;;4.38;0.85;;;;;;;13.56;nan;99988.88;4953277;28;20027;-46
2023/03/25 09:45:05;;;;;;;6.53;0.98;;;;;;;13.53;nan;99976.78;4947094;28;20434;-48
2023/03/25 09:47:33;;;;;;;5.10;0.98;;;;;;;13.55;nan;99972.22;4951003;28;20166;-45
2023/03/25 09:50:01;;;;;;;2.13;0.70;;;;;;;13.56;nan;99973.03;4951386;28;20034;-47
2023/03/25 09:52:51;;;;;;;5.20;1.20;;;;;;;13.53;nan;99975.97;4956578;28;20485;-46
2023/03/25 09:55:33;;;;;;;3.42;1.52;;;;;;;13.53;nan;99974.13;4952046;28;20031;-47
2023/03/25 09:58:34;;;;;;;3.05;0.90;;;;;;;13.60;nan;99977.09;4962652;28;20081;-47
2023/03/25 10:01:26;;;;;;;2.33;0.70;;;;;;;13.64;nan;99973.25;4948750;28;20074;-48
2023/03/25 10:03:54;;;;;;;3.17;0.80;;;;;;;13.74;nan;99970.69;4970456;28;20055;-49
2023/03/25 10:06:25;;;;;;;4.70;2.05;;;;;;;13.84;nan;99976.06;4951354;28;20275;-47
2023/03/25 10:09:09;;;;;;;4.53;1.15;;;;;;;13.95;nan;99973.34;4948799;28;20046;-47
2023/03/25 10:11:59;;;;;;;3.13;0.68;;;;;;;13.99;nan;99964.16;4951384;28;20042;-47
2023/03/25 10:15:00;;;;;;;2.20;0.75;;;;;;;14.11;nan;99969.38;4949482;28;20536;-45
2023/03/25 10:17:35;;;;;;;1.73;0.70;;;;;;;14.07;nan;99974.09;4942243;28;20533;-48
2023/03/25 10:20:30;;;;;;;4.88;1.00;;;;;;;13.94;nan;99965.50;4947539;28;20482;-48
2023/03/25 10:23:08;;;;;;;4.28;1.38;;;;;;;13.84;nan;99954.91;4945288;28;20162;-48
2023/03/25 10:25:37;;;;;;;3.33;1.02;;;;;;;13.83;nan;99954.03;4951345;28;20102;-46
2023/03/25 10:28:05;;;;;;;5.30;1.15;;;;;;;13.88;nan;99958.94;4950387;28;20027;-47
2023/03/25 10:30:47;;;;;;;1.77;1.02;;;;;;;13.94;nan;99963.72;4946018;28;20126;-47
2023/03/25 10:33:36;;;;;;;2.38;0.60;;;;;;;13.94;nan;99957.56;4952246;28;20029;-48
2023/03/25 10:36:05;;;;;;;3.15;0.80;;;;;;;13.91;nan;99965.78;4947638;28;20543;-46
2023/03/25 10:38:34;;;;;;;2.15;0.60;;;;;;;13.89;nan;99968.56;4947989;28;20035;-46
2023/03/25 10:41:38;;;;;;;5.07;1.00;;;;;;;14.00;nan;99968.47;4948782;28;20110;-46
2023/03/25 10:44:09;;;;;;;2.58;0.60;;;;;;;14.05;nan;99961.97;4949836;28;20039;-45
2023/03/25 10:46:47;;;;;;;1.30;0.57;;;;;;;14.10;nan;99970.34;4949702;28;20039;-47
2023/03/25 10:49:26;;;;;;;3.13;0.80;;;;;;;14.09;nan;99968.69;4949632;28;20070;-48
2023/03/25 10:51:53;;;;;;;3.28;0.88;;;;;;;14.03;nan;99970.88;4966323;28;20512;-48
2023/03/25 10:54:23;;;;;;;1.13;0.73;;;;;;;13.93;nan;99969.13;4947082;28;20082;-47
2023/03/25 10:56:51;;;;;;;4.15;0.60;;;;;;;13.86;nan;99972.28;4941240;28;20023;-47
2023/03/25 10:59:33;;;;;;;2.65;0.80;;;;;;;13.79;nan;99965.84;4945344;28;20027;-48
2023/03/25 11:02:10;;;;;;;3.22;0.50;;;;;;;13.81;nan;99965.72;4945515;28;20475;-46
2023/03/25 11:04:39;;;;;;;2.85;1.02;;;;;;;13.85;nan;99962.69;4949784;28;20086;-45
2023/03/25 11:07:18;;;;;;;2.20;0.98;;;;;;;13.99;nan;99956.22;4950960;28;20055;-46
2023/03/25 11:09:43;;;;;;;4.40;1.27;;;;;;;14.11;nan;99961.44;4949992;28;20035;-46
2023/03/25 11:12:09;;;;;;;3.08;0.85;;;;;;;14.22;nan;99950.78;4954916;28;20031;-47
2023/03/25 11:14:39;;;;;;;2.35;0.50;;;;;;;14.26;nan;99949.56;4948072;28;20044;-47
2023/03/25 11:17:17;;;;;;;1.98;0.60;;;;;;;14.36;nan;99959.34;4946930;28;20037;-47
2023/03/25 11:19:54;;;;;;;1.85;0.82;;;;;;;14.42;nan;99953.53;4946530;28;20042;-45
2023/03/25 11:22:37;;;;;;;1.27;0.45;;;;;;;14.41;nan;99954.50;4949365;28;20419;-47
2023/03/25 11:25:30;;;;;;;1.40;0.70;;;;;;;14.40;nan;99956.28;4950857;28;20082;-46
2023/03/25 11:27:58;;;;;;;2.13;0.80;;;;;;;14.33;nan;99944.56;4951642;28;20050;-46
2023/03/25 11:30:25;;;;;;;2.03;1.02;;;;;;;14.31;nan;99941.22;4947171;28;20039;-50
2023/03/25 11:33:02;;;;;;;3.90;1.00;;;;;;;14.30;nan;99940.34;4948917;28;20035;-46
2023/03/25 11:35:31;;;;;;;1.13;0.50;;;;;;;14.39;nan;99940.56;4946634;28;20031;-48
2023/03/25 11:38:01;;;;;;;22.27;10.45;;;;;;;14.43;nan;99945.44;4945581;28;20482;-45
2023/03/25 11:40:30;;;;;;;5.72;3.08;;;;;;;14.47;nan;99935.41;4948980;28;20034;-46
2023/03/25 11:43:00;;;;;;;3.90;0.90;;;;;;;14.51;nan;99946.59;4950640;28;20027;-45
2023/03/25 11:45:37;;;;;;;1.88;1.02;;;;;;;14.40;nan;99950.16;4949486;28;20749;-47
2023/03/25 11:48:30;;;;;;;6.00;0.47;;;;;;;14.06;nan;99964.50;4949495;28;20043;-47
2023/03/25 11:51:00;;;;;;;0.85;0.30;;;;;;;13.61;nan;99970.84;4944378;29;20500;-47
2023/03/25 11:53:31;;;;;;;0.52;0.30;;;;;;;13.06;nan;99965.59;4942482;28;20035;-45
2023/03/25 11:56:03;;;;;;;0.82;0.30;;;;;;;13.22;nan;99941.44;4948778;28;20032;-46
2023/03/25 11:58:32;;;;;;;;;;;;;;;12.88;nan;99937.06;4949132;29;20023;-45
2023/03/25 12:01:06;;;;;;;3.05;0.30;;;;;;;12.91;nan;99933.38;4944541;28;19915;-46
2023/03/25 12:03:38;;;;;;;2.97;0.70;;;;;;;12.99;nan;99932.75;4952932;28;20023;-45
2023/03/25 12:06:11;;;;;;;2.65;0.50;;;;;;;13.08;nan;99916.16;4954471;28;20039;-47
2023/03/25 12:08:42;;;;;;;1.10;0.30;;;;;;;13.17;nan;99925.94;4953629;28;21076;-47